UAL204 KCMH-KORD
Flight info
| Callsign | UAL204 |
|---|---|
| Flight time | 1h 5m |
| Altitude | 34000 |
| Route | PKACZ TARRY FWA WATSN4 |
| Aircraft | B738/M-SDE2E3FGHIRWXY/LB1 |
Departure
| Time | 2026-05-09 00:31 |
|---|---|
| Airport | John Glenn Columbus International Airport (KCMH) |
Arrival
| Time | 2026-05-09 01:36 |
|---|---|
| Airport | Chicago O'Hare International Airport (KORD) |
| Time | Latitude | Longitude | Altitude | Speed | Heading |
|---|---|---|---|---|---|
| 2026-05-09 00:10 | 39.99834 | -82.87991 | 824 ft | 0 kts | 278° |
| 2026-05-09 00:22 | 39.99830 | -82.87961 | 824 ft | 4 kts | 281° |
| 2026-05-09 00:22 | 39.99823 | -82.87928 | 824 ft | 4 kts | 300° |
| 2026-05-09 00:23 | 39.99806 | -82.87903 | 824 ft | 4 kts | 338° |
| 2026-05-09 00:23 | 39.99793 | -82.87899 | 824 ft | 0 kts | 4° |
| 2026-05-09 00:27 | 39.99822 | -82.87896 | 822 ft | 6 kts | 4° |
| 2026-05-09 00:27 | 39.99874 | -82.87891 | 824 ft | 9 kts | 3° |
| 2026-05-09 00:27 | 39.99934 | -82.87917 | 821 ft | 9 kts | 324° |
| 2026-05-09 00:28 | 39.99991 | -82.87948 | 824 ft | 9 kts | 3° |
| 2026-05-09 00:28 | 40.00039 | -82.87943 | 821 ft | 6 kts | 4° |
| 2026-05-09 00:28 | 40.00061 | -82.87941 | 823 ft | 1 kts | 4° |
| 2026-05-09 00:28 | 40.00062 | -82.87941 | 823 ft | 0 kts | 4° |
| 2026-05-09 00:29 | 40.00079 | -82.87939 | 820 ft | 8 kts | 4° |
| 2026-05-09 00:29 | 40.00151 | -82.87947 | 823 ft | 10 kts | 327° |
| 2026-05-09 00:30 | 40.00163 | -82.87990 | 823 ft | 0 kts | 275° |
| 2026-05-09 00:30 | 40.00164 | -82.88002 | 823 ft | 9 kts | 275° |
| 2026-05-09 00:30 | 40.00189 | -82.88449 | 826 ft | 96 kts | 274° |
| 2026-05-09 00:30 | 40.00258 | -82.89694 | 895 ft | 171 kts | 274° |
| 2026-05-09 00:31 | 40.00336 | -82.91303 | 1885 ft | 178 kts | 273° |
| 2026-05-09 00:31 | 40.00425 | -82.92924 | 3085 ft | 186 kts | 274° |
| 2026-05-09 00:31 | 40.00547 | -82.94718 | 3569 ft | 211 kts | 274° |
| 2026-05-09 00:31 | 40.00702 | -82.96729 | 4021 ft | 229 kts | 274° |
| 2026-05-09 00:32 | 40.00814 | -82.98108 | 4503 ft | 233 kts | 274° |
| 2026-05-09 00:32 | 40.00976 | -83.00793 | 4976 ft | 229 kts | 269° |
| 2026-05-09 00:32 | 40.00988 | -83.02936 | 4989 ft | 246 kts | 268° |
| 2026-05-09 00:32 | 40.00988 | -83.05220 | 5057 ft | 255 kts | 268° |
| 2026-05-09 00:33 | 40.00989 | -83.06754 | 5521 ft | 257 kts | 268° |
| 2026-05-09 00:33 | 40.00996 | -83.09076 | 6703 ft | 254 kts | 268° |
| 2026-05-09 00:33 | 40.01006 | -83.11389 | 7764 ft | 256 kts | 267° |
| 2026-05-09 00:33 | 40.01017 | -83.13733 | 8716 ft | 259 kts | 267° |
| 2026-05-09 00:34 | 40.01030 | -83.16096 | 9659 ft | 264 kts | 267° |
| 2026-05-09 00:34 | 40.01046 | -83.18510 | 10514 ft | 271 kts | 268° |
| 2026-05-09 00:34 | 40.01062 | -83.21084 | 10798 ft | 298 kts | 269° |
| 2026-05-09 00:34 | 40.01079 | -83.23883 | 11244 ft | 315 kts | 269° |
| 2026-05-09 00:35 | 40.01101 | -83.26767 | 12069 ft | 319 kts | 270° |
| 2026-05-09 00:35 | 40.01126 | -83.29671 | 13033 ft | 320 kts | 270° |
| 2026-05-09 00:35 | 40.01148 | -83.32571 | 13950 ft | 322 kts | 270° |
| 2026-05-09 00:35 | 40.01168 | -83.35518 | 14739 ft | 326 kts | 270° |
| 2026-05-09 00:36 | 40.01188 | -83.38489 | 15453 ft | 329 kts | 271° |
| 2026-05-09 00:36 | 40.01207 | -83.41490 | 16111 ft | 333 kts | 271° |
| 2026-05-09 00:36 | 40.01226 | -83.44517 | 16816 ft | 335 kts | 271° |
| 2026-05-09 00:36 | 40.01244 | -83.47576 | 17456 ft | 338 kts | 271° |
| 2026-05-09 00:37 | 40.01261 | -83.50654 | 18064 ft | 341 kts | 271° |
| 2026-05-09 00:37 | 40.01278 | -83.53735 | 18848 ft | 339 kts | 271° |
| 2026-05-09 00:37 | 40.01293 | -83.56812 | 19455 ft | 341 kts | 271° |
| 2026-05-09 00:37 | 40.01443 | -83.59917 | 20002 ft | 345 kts | 277° |
| 2026-05-09 00:38 | 40.01817 | -83.63021 | 20593 ft | 347 kts | 278° |
| 2026-05-09 00:38 | 40.02229 | -83.66138 | 21142 ft | 350 kts | 279° |
| 2026-05-09 00:38 | 40.02646 | -83.69286 | 21678 ft | 354 kts | 278° |
| 2026-05-09 00:38 | 40.03051 | -83.72421 | 22304 ft | 356 kts | 278° |
| 2026-05-09 00:39 | 40.03459 | -83.75652 | 22927 ft | 358 kts | 278° |
| 2026-05-09 00:39 | 40.03861 | -83.78874 | 23481 ft | 361 kts | 278° |
| 2026-05-09 00:39 | 40.04256 | -83.82079 | 24023 ft | 363 kts | 278° |
| 2026-05-09 00:39 | 40.04658 | -83.85346 | 24562 ft | 365 kts | 278° |
| 2026-05-09 00:40 | 40.05305 | -83.88573 | 25082 ft | 370 kts | 288° |
| 2026-05-09 00:40 | 40.06341 | -83.91497 | 25587 ft | 374 kts | 294° |
| 2026-05-09 00:40 | 40.07703 | -83.94414 | 26056 ft | 380 kts | 301° |
| 2026-05-09 00:41 | 40.11334 | -83.99597 | 26930 ft | 390 kts | 308° |
| 2026-05-09 00:41 | 40.13158 | -84.02024 | 27385 ft | 392 kts | 308° |
| 2026-05-09 00:41 | 40.15075 | -84.04571 | 27862 ft | 392 kts | 308° |
| 2026-05-09 00:41 | 40.16752 | -84.06806 | 28411 ft | 389 kts | 308° |
| 2026-05-09 00:42 | 40.18608 | -84.09291 | 29073 ft | 385 kts | 307° |
| 2026-05-09 00:42 | 40.20464 | -84.11788 | 29676 ft | 382 kts | 307° |
| 2026-05-09 00:42 | 40.22306 | -84.14280 | 30210 ft | 380 kts | 307° |
| 2026-05-09 00:42 | 40.24134 | -84.16760 | 30763 ft | 377 kts | 307° |
| 2026-05-09 00:43 | 40.25960 | -84.19240 | 31343 ft | 374 kts | 306° |
| 2026-05-09 00:43 | 40.27743 | -84.21666 | 31905 ft | 370 kts | 305° |
| 2026-05-09 00:43 | 40.29516 | -84.24079 | 32453 ft | 366 kts | 304° |
| 2026-05-09 00:43 | 40.31282 | -84.26487 | 32917 ft | 364 kts | 304° |
| 2026-05-09 00:44 | 40.33034 | -84.28881 | 33328 ft | 364 kts | 303° |
| 2026-05-09 00:44 | 40.34778 | -84.31264 | 33789 ft | 361 kts | 303° |
| 2026-05-09 00:44 | 40.38254 | -84.36021 | 33904 ft | 359 kts | 303° |
| 2026-05-09 00:45 | 40.41715 | -84.40768 | 33899 ft | 360 kts | 303° |
| 2026-05-09 00:45 | 40.43435 | -84.43119 | 33720 ft | 351 kts | 303° |
| 2026-05-09 00:45 | 40.45096 | -84.45378 | 33831 ft | 339 kts | 302° |
| 2026-05-09 00:46 | 40.48374 | -84.49902 | 33903 ft | 352 kts | 302° |
| 2026-05-09 00:46 | 40.51825 | -84.54682 | 33909 ft | 365 kts | 303° |
| 2026-05-09 00:47 | 40.55312 | -84.59473 | 33881 ft | 358 kts | 303° |
| 2026-05-09 00:47 | 40.58730 | -84.64179 | 33894 ft | 356 kts | 303° |
| 2026-05-09 00:48 | 40.62150 | -84.68909 | 33880 ft | 357 kts | 303° |
| 2026-05-09 00:48 | 40.65583 | -84.73663 | 33880 ft | 358 kts | 303° |
| 2026-05-09 00:49 | 40.69017 | -84.78427 | 33882 ft | 358 kts | 303° |
| 2026-05-09 00:49 | 40.72448 | -84.83195 | 33878 ft | 359 kts | 303° |
| 2026-05-09 00:50 | 40.74159 | -84.85572 | 33630 ft | 353 kts | 303° |
| 2026-05-09 00:50 | 40.75834 | -84.87895 | 33380 ft | 345 kts | 303° |
| 2026-05-09 00:50 | 40.77468 | -84.90161 | 33127 ft | 338 kts | 303° |
| 2026-05-09 00:50 | 40.79064 | -84.92382 | 32871 ft | 331 kts | 303° |
| 2026-05-09 00:51 | 40.80632 | -84.94568 | 32612 ft | 324 kts | 302° |
| 2026-05-09 00:51 | 40.82168 | -84.96715 | 32360 ft | 319 kts | 303° |
| 2026-05-09 00:51 | 40.83676 | -84.98824 | 32106 ft | 313 kts | 302° |
| 2026-05-09 00:51 | 40.85097 | -85.00814 | 31868 ft | 308 kts | 302° |
| 2026-05-09 00:52 | 40.86557 | -85.02860 | 31611 ft | 303 kts | 303° |
| 2026-05-09 00:52 | 40.87971 | -85.04841 | 31363 ft | 298 kts | 303° |
| 2026-05-09 00:52 | 40.89390 | -85.06831 | 31111 ft | 297 kts | 302° |
| 2026-05-09 00:52 | 40.90798 | -85.08813 | 30860 ft | 296 kts | 303° |
| 2026-05-09 00:53 | 40.92219 | -85.10813 | 30622 ft | 300 kts | 303° |
| 2026-05-09 00:53 | 40.93662 | -85.12845 | 30393 ft | 306 kts | 303° |
| 2026-05-09 00:53 | 40.95129 | -85.14907 | 30136 ft | 308 kts | 303° |
| 2026-05-09 00:53 | 40.96558 | -85.16988 | 29876 ft | 301 kts | 297° |
| 2026-05-09 00:54 | 40.97518 | -85.19370 | 29640 ft | 290 kts | 287° |
| 2026-05-09 00:54 | 40.98091 | -85.21896 | 29378 ft | 285 kts | 277° |
| 2026-05-09 00:54 | 40.98328 | -85.24489 | 29138 ft | 284 kts | 273° |
| 2026-05-09 00:54 | 40.98477 | -85.27100 | 28890 ft | 284 kts | 272° |
| 2026-05-09 00:55 | 40.98611 | -85.29721 | 28644 ft | 286 kts | 272° |
| 2026-05-09 00:55 | 40.98751 | -85.32356 | 28394 ft | 289 kts | 273° |
| 2026-05-09 00:55 | 40.98897 | -85.35016 | 28143 ft | 291 kts | 273° |
| 2026-05-09 00:55 | 40.99049 | -85.37698 | 27902 ft | 294 kts | 273° |
| 2026-05-09 00:56 | 40.99207 | -85.40413 | 27655 ft | 297 kts | 273° |
| 2026-05-09 00:56 | 40.99367 | -85.43111 | 27409 ft | 298 kts | 273° |
| 2026-05-09 00:56 | 40.99530 | -85.45863 | 27159 ft | 301 kts | 273° |
| 2026-05-09 00:56 | 40.99693 | -85.48631 | 26910 ft | 303 kts | 273° |
| 2026-05-09 00:57 | 40.99856 | -85.51418 | 26662 ft | 305 kts | 273° |
| 2026-05-09 00:57 | 41.00018 | -85.54204 | 26413 ft | 306 kts | 273° |
| 2026-05-09 00:57 | 41.00183 | -85.57022 | 26165 ft | 307 kts | 273° |
| 2026-05-09 00:57 | 41.00351 | -85.59842 | 25918 ft | 308 kts | 273° |
| 2026-05-09 00:58 | 41.00518 | -85.62674 | 25666 ft | 309 kts | 273° |
| 2026-05-09 00:58 | 41.00684 | -85.65513 | 25421 ft | 309 kts | 273° |
| 2026-05-09 00:58 | 41.00849 | -85.68327 | 25171 ft | 309 kts | 273° |
| 2026-05-09 00:58 | 41.01016 | -85.71182 | 24950 ft | 306 kts | 274° |
| 2026-05-09 00:59 | 41.01178 | -85.73976 | 24898 ft | 304 kts | 274° |
| 2026-05-09 00:59 | 41.01339 | -85.76763 | 24867 ft | 303 kts | 274° |
| 2026-05-09 00:59 | 41.01500 | -85.79547 | 24870 ft | 305 kts | 274° |
| 2026-05-09 00:59 | 41.01658 | -85.82314 | 24863 ft | 305 kts | 274° |
| 2026-05-09 01:00 | 41.01818 | -85.85119 | 24852 ft | 305 kts | 274° |
| 2026-05-09 01:00 | 41.01977 | -85.87915 | 24852 ft | 305 kts | 274° |
| 2026-05-09 01:00 | 41.02255 | -85.90695 | 24848 ft | 305 kts | 278° |
| 2026-05-09 01:00 | 41.02653 | -85.93456 | 24855 ft | 305 kts | 279° |
| 2026-05-09 01:01 | 41.03077 | -85.96208 | 24844 ft | 305 kts | 279° |
| 2026-05-09 01:01 | 41.03503 | -85.98961 | 24852 ft | 305 kts | 279° |
| 2026-05-09 01:01 | 41.03903 | -86.01595 | 24845 ft | 305 kts | 279° |
| 2026-05-09 01:01 | 41.04316 | -86.04350 | 24850 ft | 304 kts | 279° |
| 2026-05-09 01:02 | 41.04722 | -86.07100 | 24849 ft | 302 kts | 279° |
| 2026-05-09 01:02 | 41.05114 | -86.09774 | 24840 ft | 290 kts | 278° |
| 2026-05-09 01:02 | 41.05489 | -86.12343 | 24831 ft | 277 kts | 278° |
| 2026-05-09 01:02 | 41.05843 | -86.14786 | 24824 ft | 264 kts | 278° |
| 2026-05-09 01:03 | 41.06182 | -86.17131 | 24816 ft | 254 kts | 278° |
| 2026-05-09 01:03 | 41.06512 | -86.19426 | 24874 ft | 257 kts | 278° |
| 2026-05-09 01:03 | 41.06857 | -86.21851 | 24860 ft | 278 kts | 278° |
| 2026-05-09 01:03 | 41.07227 | -86.24453 | 24867 ft | 296 kts | 278° |
| 2026-05-09 01:04 | 41.07612 | -86.27144 | 24851 ft | 298 kts | 278° |
| 2026-05-09 01:04 | 41.07999 | -86.29844 | 24845 ft | 299 kts | 278° |
| 2026-05-09 01:04 | 41.08387 | -86.32560 | 24846 ft | 300 kts | 278° |
| 2026-05-09 01:04 | 41.08775 | -86.35276 | 24839 ft | 300 kts | 278° |
| 2026-05-09 01:05 | 41.09162 | -86.37997 | 24841 ft | 300 kts | 278° |
| 2026-05-09 01:05 | 41.09546 | -86.40712 | 24843 ft | 300 kts | 278° |
| 2026-05-09 01:05 | 41.10311 | -86.46132 | 24836 ft | 301 kts | 278° |
| 2026-05-09 01:06 | 41.10695 | -86.48855 | 24842 ft | 300 kts | 278° |
| 2026-05-09 01:06 | 41.11034 | -86.51263 | 24836 ft | 301 kts | 278° |
| 2026-05-09 01:06 | 41.11418 | -86.53988 | 24838 ft | 301 kts | 278° |
| 2026-05-09 01:06 | 41.11799 | -86.56706 | 24838 ft | 300 kts | 278° |
| 2026-05-09 01:07 | 41.12181 | -86.59435 | 24837 ft | 300 kts | 278° |
| 2026-05-09 01:07 | 41.12535 | -86.62161 | 24834 ft | 301 kts | 281° |
| 2026-05-09 01:07 | 41.13423 | -86.64727 | 24830 ft | 310 kts | 295° |
| 2026-05-09 01:07 | 41.14518 | -86.67171 | 24561 ft | 307 kts | 295° |
| 2026-05-09 01:08 | 41.15608 | -86.69615 | 24115 ft | 308 kts | 295° |
| 2026-05-09 01:08 | 41.16690 | -86.72080 | 23549 ft | 311 kts | 295° |
| 2026-05-09 01:08 | 41.17771 | -86.74581 | 23073 ft | 311 kts | 295° |
| 2026-05-09 01:08 | 41.18833 | -86.77070 | 22696 ft | 309 kts | 295° |
| 2026-05-09 01:09 | 41.19882 | -86.79544 | 22288 ft | 307 kts | 295° |
| 2026-05-09 01:09 | 41.20923 | -86.82015 | 21872 ft | 306 kts | 295° |
| 2026-05-09 01:09 | 41.21957 | -86.84480 | 21469 ft | 305 kts | 295° |
| 2026-05-09 01:09 | 41.22983 | -86.86932 | 21066 ft | 303 kts | 295° |
| 2026-05-09 01:10 | 41.23991 | -86.89348 | 20649 ft | 302 kts | 295° |
| 2026-05-09 01:10 | 41.24999 | -86.91764 | 20478 ft | 294 kts | 295° |
| 2026-05-09 01:10 | 41.25972 | -86.94097 | 20406 ft | 283 kts | 295° |
| 2026-05-09 01:10 | 41.26907 | -86.96339 | 20339 ft | 273 kts | 295° |
| 2026-05-09 01:11 | 41.27808 | -86.98505 | 20264 ft | 262 kts | 295° |
| 2026-05-09 01:11 | 41.28644 | -87.00516 | 20162 ft | 255 kts | 294° |
| 2026-05-09 01:11 | 41.29486 | -87.02546 | 20088 ft | 246 kts | 294° |
| 2026-05-09 01:11 | 41.30297 | -87.04502 | 20011 ft | 238 kts | 294° |
| 2026-05-09 01:12 | 41.31095 | -87.06433 | 19738 ft | 240 kts | 294° |
| 2026-05-09 01:12 | 41.31929 | -87.08458 | 19541 ft | 262 kts | 295° |
| 2026-05-09 01:12 | 41.32825 | -87.10662 | 19307 ft | 276 kts | 295° |
| 2026-05-09 01:12 | 41.33745 | -87.12927 | 18982 ft | 279 kts | 295° |
| 2026-05-09 01:13 | 41.34701 | -87.15218 | 18237 ft | 286 kts | 296° |
| 2026-05-09 01:13 | 41.35673 | -87.17543 | 17495 ft | 290 kts | 296° |
| 2026-05-09 01:13 | 41.36803 | -87.19769 | 16942 ft | 293 kts | 309° |
| 2026-05-09 01:13 | 41.38296 | -87.21610 | 16697 ft | 290 kts | 314° |
| 2026-05-09 01:14 | 41.39804 | -87.23376 | 16393 ft | 288 kts | 314° |
| 2026-05-09 01:14 | 41.41323 | -87.25162 | 15836 ft | 293 kts | 314° |
| 2026-05-09 01:14 | 41.42854 | -87.26973 | 15341 ft | 296 kts | 314° |
| 2026-05-09 01:14 | 41.44398 | -87.28809 | 14837 ft | 298 kts | 314° |
| 2026-05-09 01:15 | 41.45948 | -87.30661 | 14343 ft | 300 kts | 314° |
| 2026-05-09 01:15 | 41.47487 | -87.32503 | 13852 ft | 302 kts | 314° |
| 2026-05-09 01:15 | 41.49072 | -87.34403 | 13349 ft | 303 kts | 315° |
| 2026-05-09 01:15 | 41.50640 | -87.36243 | 12851 ft | 305 kts | 318° |
| 2026-05-09 01:16 | 41.52395 | -87.37916 | 12349 ft | 308 kts | 323° |
| 2026-05-09 01:16 | 41.54167 | -87.39462 | 11858 ft | 308 kts | 324° |
| 2026-05-09 01:16 | 41.55991 | -87.41040 | 11339 ft | 309 kts | 323° |
| 2026-05-09 01:17 | 41.59461 | -87.44088 | 11028 ft | 290 kts | 323° |
| 2026-05-09 01:17 | 41.61102 | -87.45552 | 11009 ft | 276 kts | 323° |
| 2026-05-09 01:17 | 41.62659 | -87.46949 | 11004 ft | 266 kts | 322° |
| 2026-05-09 01:17 | 41.64183 | -87.48317 | 11010 ft | 262 kts | 322° |
| 2026-05-09 01:18 | 41.65697 | -87.49695 | 11024 ft | 264 kts | 320° |
| 2026-05-09 01:18 | 41.67123 | -87.51253 | 11019 ft | 266 kts | 316° |
| 2026-05-09 01:18 | 41.68064 | -87.52356 | 11020 ft | 267 kts | 316° |
| 2026-05-09 01:18 | 41.69463 | -87.53989 | 11022 ft | 268 kts | 316° |
| 2026-05-09 01:19 | 41.70877 | -87.55619 | 11021 ft | 268 kts | 316° |
| 2026-05-09 01:19 | 41.72296 | -87.57243 | 11017 ft | 268 kts | 316° |
| 2026-05-09 01:19 | 41.73711 | -87.58855 | 11017 ft | 267 kts | 317° |
| 2026-05-09 01:19 | 41.75134 | -87.60452 | 11015 ft | 266 kts | 317° |
| 2026-05-09 01:20 | 41.76550 | -87.62034 | 11014 ft | 265 kts | 317° |
| 2026-05-09 01:20 | 41.77965 | -87.63615 | 11013 ft | 265 kts | 317° |
| 2026-05-09 01:20 | 41.79204 | -87.65391 | 10932 ft | 260 kts | 296° |
| 2026-05-09 01:20 | 41.79856 | -87.67621 | 10631 ft | 259 kts | 289° |
| 2026-05-09 01:21 | 41.80456 | -87.69895 | 10285 ft | 260 kts | 289° |
| 2026-05-09 01:21 | 41.81070 | -87.72189 | 9946 ft | 262 kts | 289° |
| 2026-05-09 01:21 | 41.81691 | -87.74484 | 9674 ft | 261 kts | 289° |
| 2026-05-09 01:21 | 41.82316 | -87.76775 | 9331 ft | 263 kts | 289° |
| 2026-05-09 01:22 | 41.82939 | -87.79032 | 9034 ft | 262 kts | 289° |
| 2026-05-09 01:22 | 41.83575 | -87.81323 | 8677 ft | 262 kts | 289° |
| 2026-05-09 01:22 | 41.84218 | -87.83619 | 8367 ft | 263 kts | 289° |
| 2026-05-09 01:22 | 41.84849 | -87.85910 | 8123 ft | 260 kts | 289° |
| 2026-05-09 01:23 | 41.85475 | -87.88154 | 8033 ft | 252 kts | 289° |
| 2026-05-09 01:23 | 41.86073 | -87.90309 | 8009 ft | 240 kts | 289° |
| 2026-05-09 01:23 | 41.86646 | -87.92361 | 7995 ft | 231 kts | 289° |
| 2026-05-09 01:23 | 41.87211 | -87.94390 | 8014 ft | 236 kts | 289° |
| 2026-05-09 01:24 | 41.87799 | -87.96505 | 8020 ft | 247 kts | 288° |
| 2026-05-09 01:24 | 41.88363 | -87.98698 | 8014 ft | 250 kts | 281° |
| 2026-05-09 01:24 | 41.88461 | -88.00910 | 7981 ft | 246 kts | 267° |
| 2026-05-09 01:24 | 41.88371 | -88.03185 | 7759 ft | 244 kts | 266° |
| 2026-05-09 01:25 | 41.88272 | -88.05463 | 7417 ft | 246 kts | 266° |
| 2026-05-09 01:25 | 41.88177 | -88.07751 | 7156 ft | 245 kts | 266° |
| 2026-05-09 01:25 | 41.88087 | -88.10028 | 6918 ft | 244 kts | 266° |
| 2026-05-09 01:25 | 41.88002 | -88.12304 | 6633 ft | 244 kts | 266° |
| 2026-05-09 01:26 | 41.87921 | -88.14566 | 6387 ft | 243 kts | 266° |
| 2026-05-09 01:26 | 41.87843 | -88.16820 | 6105 ft | 242 kts | 266° |
| 2026-05-09 01:26 | 41.87772 | -88.19075 | 5818 ft | 242 kts | 267° |
| 2026-05-09 01:26 | 41.87709 | -88.21351 | 5386 ft | 248 kts | 267° |
| 2026-05-09 01:27 | 41.87649 | -88.23648 | 5051 ft | 249 kts | 267° |
| 2026-05-09 01:27 | 41.87593 | -88.25913 | 5000 ft | 238 kts | 267° |
| 2026-05-09 01:27 | 41.87542 | -88.28078 | 4986 ft | 226 kts | 267° |
| 2026-05-09 01:27 | 41.87495 | -88.30132 | 4978 ft | 215 kts | 267° |
| 2026-05-09 01:28 | 41.87454 | -88.32071 | 5002 ft | 203 kts | 267° |
| 2026-05-09 01:28 | 41.87585 | -88.33965 | 4994 ft | 213 kts | 291° |
| 2026-05-09 01:28 | 41.88607 | -88.35435 | 5010 ft | 226 kts | 333° |
| 2026-05-09 01:28 | 41.90173 | -88.35809 | 5017 ft | 233 kts | 357° |
| 2026-05-09 01:29 | 41.91793 | -88.35867 | 5000 ft | 232 kts | 356° |
| 2026-05-09 01:29 | 41.93403 | -88.35818 | 4981 ft | 233 kts | 12° |
| 2026-05-09 01:29 | 41.94751 | -88.34693 | 4998 ft | 232 kts | 53° |
| 2026-05-09 01:29 | 41.95485 | -88.32769 | 5012 ft | 232 kts | 66° |
| 2026-05-09 01:30 | 41.96139 | -88.30772 | 5010 ft | 234 kts | 66° |
| 2026-05-09 01:30 | 41.96798 | -88.28769 | 5003 ft | 235 kts | 67° |
| 2026-05-09 01:30 | 41.97083 | -88.26638 | 4988 ft | 233 kts | 102° |
| 2026-05-09 01:30 | 41.96661 | -88.24548 | 4994 ft | 233 kts | 100° |
| 2026-05-09 01:31 | 41.96546 | -88.22356 | 4851 ft | 238 kts | 91° |
| 2026-05-09 01:31 | 41.96552 | -88.20109 | 4538 ft | 239 kts | 90° |
| 2026-05-09 01:31 | 41.96564 | -88.17900 | 4227 ft | 233 kts | 91° |
| 2026-05-09 01:31 | 41.96566 | -88.15767 | 3932 ft | 225 kts | 91° |
| 2026-05-09 01:32 | 41.96564 | -88.13695 | 3632 ft | 218 kts | 91° |
| 2026-05-09 01:32 | 41.96564 | -88.11688 | 3350 ft | 212 kts | 91° |
| 2026-05-09 01:32 | 41.96562 | -88.09740 | 3067 ft | 206 kts | 91° |
| 2026-05-09 01:32 | 41.96562 | -88.07877 | 2812 ft | 192 kts | 91° |
| 2026-05-09 01:33 | 41.96563 | -88.06182 | 2570 ft | 173 kts | 91° |
| 2026-05-09 01:33 | 41.96562 | -88.04646 | 2336 ft | 157 kts | 91° |
| 2026-05-09 01:33 | 41.96562 | -88.03226 | 2134 ft | 149 kts | 91° |
| 2026-05-09 01:33 | 41.96559 | -88.01820 | 1935 ft | 153 kts | 91° |
| 2026-05-09 01:34 | 41.96561 | -88.00392 | 1783 ft | 152 kts | 92° |
| 2026-05-09 01:34 | 41.96561 | -87.98997 | 1596 ft | 148 kts | 92° |
| 2026-05-09 01:34 | 41.96560 | -87.97630 | 1412 ft | 146 kts | 91° |
| 2026-05-09 01:34 | 41.96573 | -87.96260 | 1214 ft | 147 kts | 91° |
| 2026-05-09 01:35 | 41.96572 | -87.94880 | 1004 ft | 148 kts | 92° |
| 2026-05-09 01:35 | 41.96570 | -87.93500 | 784 ft | 148 kts | 91° |
| 2026-05-09 01:35 | 41.96574 | -87.92161 | 670 ft | 133 kts | 90° |
| 2026-05-09 01:35 | 41.96574 | -87.91165 | 668 ft | 76 kts | 90° |
| 2026-05-09 01:36 | 41.96578 | -87.90682 | 669 ft | 41 kts | 84° |
| 2026-05-09 01:36 | 41.96652 | -87.90401 | 668 ft | 23 kts | 59° |
| 2026-05-09 01:36 | 41.96704 | -87.90286 | 668 ft | 7 kts | 60° |
| 2026-05-09 01:36 | 41.96711 | -87.90270 | 668 ft | 4 kts | 60° |
| 2026-05-09 01:37 | 41.96739 | -87.90176 | 668 ft | 13 kts | 81° |
| 2026-05-09 01:37 | 41.96739 | -87.90015 | 668 ft | 19 kts | 90° |
| 2026-05-09 01:37 | 41.96740 | -87.89831 | 668 ft | 20 kts | 90° |
| 2026-05-09 01:37 | 41.96741 | -87.89651 | 668 ft | 19 kts | 90° |
| 2026-05-09 01:38 | 41.96741 | -87.89496 | 668 ft | 15 kts | 84° |
| 2026-05-09 01:38 | 41.96810 | -87.89436 | 669 ft | 13 kts | 360° |
| 2026-05-09 01:38 | 41.96901 | -87.89436 | 669 ft | 13 kts | 360° |
| 2026-05-09 01:38 | 41.96984 | -87.89437 | 669 ft | 7 kts | 359° |
| 2026-05-09 01:39 | 41.97011 | -87.89437 | 668 ft | 0 kts | 360° |
| 2026-05-09 01:39 | 41.97038 | -87.89437 | 668 ft | 11 kts | 360° |
| 2026-05-09 01:39 | 41.97073 | -87.89450 | 668 ft | 6 kts | 302° |
| 2026-05-09 01:39 | 41.97103 | -87.89554 | 668 ft | 15 kts | 294° |
| 2026-05-09 01:40 | 41.97162 | -87.89641 | 665 ft | 0 kts | 324° |
| 2026-05-09 01:42 | 41.97172 | -87.89651 | 667 ft | 7 kts | 324° |
| 2026-05-09 01:42 | 41.97245 | -87.89717 | 668 ft | 16 kts | 318° |
| 2026-05-09 01:42 | 41.97213 | -87.89880 | 668 ft | 21 kts | 250° |
| 2026-05-09 01:42 | 41.97205 | -87.90087 | 668 ft | 23 kts | 270° |
| 2026-05-09 01:43 | 41.97204 | -87.90300 | 668 ft | 22 kts | 270° |
| 2026-05-09 01:43 | 41.97211 | -87.90507 | 668 ft | 22 kts | 274° |
| 2026-05-09 01:43 | 41.97227 | -87.90692 | 668 ft | 15 kts | 284° |
| 2026-05-09 01:43 | 41.97283 | -87.90810 | 668 ft | 15 kts | 313° |
| 2026-05-09 01:44 | 41.97361 | -87.90913 | 668 ft | 17 kts | 316° |
| 2026-05-09 01:44 | 41.97450 | -87.91018 | 668 ft | 18 kts | 320° |
| 2026-05-09 01:44 | 41.97546 | -87.91117 | 668 ft | 17 kts | 323° |
| 2026-05-09 01:44 | 41.97640 | -87.91209 | 668 ft | 16 kts | 324° |
| 2026-05-09 01:45 | 41.97739 | -87.91282 | 668 ft | 17 kts | 340° |
| 2026-05-09 01:45 | 41.97854 | -87.91298 | 668 ft | 17 kts | 6° |
| 2026-05-09 01:45 | 41.97962 | -87.91249 | 668 ft | 16 kts | 28° |
| 2026-05-09 01:45 | 41.98040 | -87.91193 | 668 ft | 4 kts | 31° |
| 2026-05-09 01:46 | 41.98047 | -87.91171 | 668 ft | 5 kts | 81° |
| 2026-05-09 01:46 | 41.98040 | -87.91138 | 668 ft | 6 kts | 111° |
| 2026-05-09 01:46 | 41.98031 | -87.91095 | 668 ft | 4 kts | 98° |
| 2026-05-09 01:46 | 41.98025 | -87.91056 | 668 ft | 4 kts | 105° |
| 2026-05-09 01:47 | 41.98022 | -87.91043 | 668 ft | 1 kts | 105° |
| 2026-05-09 01:47 | 41.98022 | -87.91041 | 667 ft | 0 kts | 105° |